createdAt,value
2022-12-26T00:04:57.274Z,14.95357
2022-12-26T00:09:59.105Z,15.259862
2022-12-26T00:15:00.803Z,14.675354
2022-12-26T00:20:02.460Z,14.899388
2022-12-26T00:25:04.210Z,14.33526
2022-12-26T00:30:05.914Z,14.054126
2022-12-26T00:35:07.735Z,14.408956
2022-12-26T00:40:09.490Z,14.457236
2022-12-26T00:45:11.612Z,14.793816
2022-12-26T00:50:15.674Z,14.711286
2022-12-26T00:55:18.199Z,14.072214
2022-12-26T01:00:20.277Z,14.626978
2022-12-26T01:05:22.168Z,13.706
2022-12-26T01:10:23.874Z,14.818622
2022-12-26T01:15:25.716Z,14.15564
2022-12-26T01:20:27.537Z,15.104246
2022-12-26T01:25:29.595Z,14.985526
2022-12-26T01:30:31.394Z,14.70978
2022-12-26T01:35:33.408Z,14.206824
2022-12-26T01:40:35.357Z,14.626544
2022-12-26T01:45:37.519Z,13.89216
2022-12-26T01:50:39.611Z,14.341
2022-12-26T01:55:41.698Z,14.818622
2022-12-26T02:00:43.593Z,14.692302
2022-12-26T02:05:45.108Z,14.97714
2022-12-26T02:10:46.954Z,14.813234
2022-12-26T02:15:49.132Z,14.571994
2022-12-26T02:20:50.924Z,15.21918
2022-12-26T02:25:52.885Z,15.333924
2022-12-26T02:30:54.883Z,15.42351
2022-12-26T02:35:56.830Z,15.55124
2022-12-26T02:40:58.957Z,15.74694
2022-12-26T02:46:00.696Z,14.950312
2022-12-26T02:51:02.416Z,15.493244
2022-12-26T02:56:04.306Z,14.59114
2022-12-26T03:01:06.103Z,15.036018
2022-12-26T03:06:07.680Z,15.111044
2022-12-26T03:11:09.237Z,15.277434
2022-12-26T03:16:11.027Z,15.16657
2022-12-26T03:21:12.859Z,15.55371
2022-12-26T03:26:14.520Z,15.130028
2022-12-26T03:31:16.282Z,14.846682
2022-12-26T03:36:17.885Z,14.966814
2022-12-26T03:41:19.361Z,15.722394
2022-12-26T03:46:21.074Z,15.203114
2022-12-26T03:51:22.593Z,15.093038
2022-12-26T03:56:24.399Z,15.459796
2022-12-26T04:01:26.559Z,15.185284
2022-12-26T04:06:28.315Z,15.578692
2022-12-26T04:11:29.951Z,15.408516
2022-12-26T04:16:31.444Z,15.75188
2022-12-26T04:21:33.234Z,15.688768
2022-12-26T04:26:35.017Z,15.525554
2022-12-26T04:31:36.619Z,15.898404
2022-12-26T04:36:38.227Z,16.023746
2022-12-26T04:41:39.732Z,16.695222
2022-12-26T04:46:41.607Z,16.236924
2022-12-26T04:51:43.360Z,16.450346
2022-12-26T04:56:45.050Z,16.973886
2022-12-26T05:01:46.833Z,16.412228
2022-12-26T05:06:48.422Z,16.666264
2022-12-26T05:11:49.923Z,17.649596
2022-12-26T05:16:51.674Z,17.01184
2022-12-26T05:21:53.237Z,17.26262
2022-12-26T05:26:55.996Z,17.132772
2022-12-26T05:31:57.577Z,17.020932
2022-12-26T05:36:59.143Z,17.878922
2022-12-26T05:42:00.869Z,19.25493
2022-12-26T05:47:02.701Z,19.531912
2022-12-26T05:52:04.199Z,20.104738
2022-12-26T05:57:05.875Z,21.161564
2022-12-26T06:02:07.527Z,21.68037
2022-12-26T06:07:09.124Z,21.767826
2022-12-26T06:12:10.716Z,21.90017
2022-12-26T06:17:12.430Z,22.436888
2022-12-26T06:22:13.956Z,23.00601
2022-12-26T06:27:15.947Z,23.564304
2022-12-26T06:32:17.896Z,24.026186
2022-12-26T06:37:19.386Z,22.979468
2022-12-26T06:42:20.987Z,24.127266
2022-12-26T06:47:22.830Z,24.926082
2022-12-26T06:52:24.678Z,24.767466
2022-12-26T06:57:26.827Z,24.281756
2022-12-26T07:02:28.936Z,25.553146
2022-12-26T07:07:30.840Z,25.884394
2022-12-26T07:12:32.641Z,25.64162
2022-12-26T07:17:34.571Z,26.294848
2022-12-26T07:22:36.258Z,25.540988
2022-12-26T07:27:39.116Z,26.002246
2022-12-26T07:32:40.988Z,27.067502
2022-12-26T07:37:42.466Z,27.12159
2022-12-26T07:42:43.950Z,27.582822
2022-12-26T07:47:45.696Z,28.096174
2022-12-26T07:52:47.646Z,27.370702
2022-12-26T07:57:49.859Z,27.450626
2022-12-26T08:02:52.008Z,28.21579
2022-12-26T08:07:53.817Z,28.552548
2022-12-26T08:18:06.073Z,27.907896
2022-12-26T08:23:07.533Z,29.425876
2022-12-26T08:28:09.141Z,28.581478
2022-12-26T08:33:10.890Z,29.06415
2022-12-26T08:38:12.580Z,29.610612
2022-12-26T08:43:36.899Z,29.644374
2022-12-26T08:48:46.989Z,27.515286
2022-12-26T08:53:48.653Z,29.053104
2022-12-26T08:58:50.143Z,26.845476
2022-12-26T09:03:51.923Z,29.516806
2022-12-26T09:08:53.461Z,29.311334
2022-12-26T09:13:55.324Z,29.444642
2022-12-26T09:18:58.168Z,30.582374
2022-12-26T09:23:59.739Z,30.428766
2022-12-26T09:29:01.289Z,30.276244
2022-12-26T09:34:02.892Z,30.147794
2022-12-26T09:39:04.613Z,31.361666
2022-12-26T09:44:06.534Z,30.5689
2022-12-26T09:49:08.087Z,30.602892
2022-12-26T09:54:09.545Z,30.559184
2022-12-26T09:59:11.092Z,29.524514
2022-12-26T10:04:12.966Z,30.131456
2022-12-26T10:09:14.594Z,29.704866
2022-12-26T10:14:21.348Z,31.084478
2022-12-26T10:19:28.693Z,28.815188
2022-12-26T10:24:34.057Z,30.587436
2022-12-26T10:29:35.774Z,29.64987
2022-12-26T10:34:37.591Z,29.009384
2022-12-26T10:39:39.490Z,29.749838
2022-12-26T10:44:41.464Z,29.320602
2022-12-26T10:49:43.694Z,31.072334
2022-12-26T10:54:45.497Z,29.759784
2022-12-26T10:59:47.275Z,28.506642
2022-12-26T11:05:15.594Z,28.552996
2022-12-26T11:10:28.546Z,29.88206
2022-12-26T11:15:30.702Z,29.11182
2022-12-26T11:20:32.213Z,29.424316
2022-12-26T11:25:33.981Z,27.987754
2022-12-26T11:30:35.860Z,27.968362
2022-12-26T11:35:37.566Z,26.989572
2022-12-26T11:40:39.398Z,27.161282
2022-12-26T11:45:41.636Z,27.29193
2022-12-26T11:50:43.405Z,26.68986
2022-12-26T11:55:45.645Z,26.816586
2022-12-26T12:00:47.532Z,26.625458
2022-12-26T12:05:49.030Z,25.478948
2022-12-26T12:10:50.678Z,25.473208
2022-12-26T12:15:52.360Z,25.421562
2022-12-26T12:20:54.030Z,25.420042
2022-12-26T12:25:55.441Z,25.53742
2022-12-26T12:30:58.176Z,21.567878
2022-12-26T12:36:00.128Z,19.930396
2022-12-26T12:41:01.632Z,19.749066
2022-12-26T12:46:03.570Z,20.50329
2022-12-26T12:51:05.449Z,21.240566
2022-12-26T12:56:06.884Z,20.848446
2022-12-26T13:06:19.362Z,21.141454
2022-12-26T13:11:21.150Z,20.915534
2022-12-26T13:16:23.310Z,22.685822
2022-12-26T13:21:25.639Z,23.205212
2022-12-26T13:26:27.983Z,23.88342
2022-12-26T13:31:30.191Z,25.502098
2022-12-26T13:36:32.554Z,23.852672
2022-12-26T13:41:34.444Z,25.112148
2022-12-26T13:46:36.655Z,26.385534
2022-12-26T13:51:38.816Z,27.227692
2022-12-26T13:56:45.711Z,28.060174
2022-12-26T14:01:52.259Z,28.538218
2022-12-26T14:06:57.172Z,26.890256
2022-12-26T14:11:59.003Z,26.959326
2022-12-26T14:17:01.166Z,28.211788
2022-12-26T14:22:03.216Z,27.299434
2022-12-26T14:27:04.810Z,27.200974
2022-12-26T14:32:06.528Z,27.129258
2022-12-26T14:37:08.211Z,27.947384
2022-12-26T14:42:09.760Z,27.45786
2022-12-26T14:47:11.729Z,27.92973
2022-12-26T14:52:13.497Z,27.905684
2022-12-26T14:57:15.391Z,28.91274
2022-12-26T15:02:17.439Z,28.407774
2022-12-26T15:07:20.848Z,28.298768
2022-12-26T15:12:22.846Z,27.5475
2022-12-26T15:17:24.998Z,28.017132
2022-12-26T15:22:26.518Z,28.15219
2022-12-26T15:27:28.032Z,26.709278
2022-12-26T15:32:29.861Z,27.311144
2022-12-26T15:37:31.671Z,26.991784
2022-12-26T15:42:33.620Z,27.118944
2022-12-26T15:47:35.386Z,27.403404
2022-12-26T15:52:37.042Z,27.488798
2022-12-26T15:57:39.275Z,27.100368
2022-12-26T16:02:40.985Z,26.07167
2022-12-26T16:07:42.742Z,26.086474
2022-12-26T16:12:44.232Z,26.33762
2022-12-26T16:17:46.128Z,25.768266
2022-12-26T16:22:47.765Z,25.356836
2022-12-26T16:27:49.208Z,25.342724
2022-12-26T16:32:50.812Z,26.032182
2022-12-26T16:37:52.314Z,25.799558
2022-12-26T16:42:53.755Z,25.963764
2022-12-26T16:47:55.442Z,25.308094
2022-12-26T16:52:57.180Z,24.81241
2022-12-26T16:57:58.823Z,25.08984
2022-12-26T17:03:00.607Z,25.127794
2022-12-26T17:08:02.427Z,24.9742
2022-12-26T17:13:03.966Z,24.795638
2022-12-26T17:18:05.926Z,24.502996
2022-12-26T17:23:07.558Z,24.251198
2022-12-26T17:28:09.010Z,24.130252
2022-12-26T17:33:10.471Z,23.864546
2022-12-26T17:38:12.013Z,23.401972
2022-12-26T17:43:13.657Z,23.71585
2022-12-26T17:48:15.340Z,23.54832
2022-12-26T17:53:17.145Z,23.292316
2022-12-26T17:58:18.634Z,23.756898
2022-12-26T18:03:20.147Z,23.449682
2022-12-26T18:08:21.910Z,21.951694
2022-12-26T18:13:23.543Z,21.309554
2022-12-26T18:18:25.301Z,20.711176
2022-12-26T18:23:27.062Z,19.9869
2022-12-26T18:28:28.642Z,18.924864
2022-12-26T18:33:30.328Z,18.647502
2022-12-26T18:38:32.355Z,18.537602
2022-12-26T18:43:34.071Z,18.677884
2022-12-26T18:48:36.056Z,17.611018
2022-12-26T18:53:38.246Z,18.122726
2022-12-26T18:58:40.086Z,17.693738
2022-12-26T19:03:42.161Z,16.88544
2022-12-26T19:08:44.006Z,16.989328
2022-12-26T19:13:46.026Z,17.116882
2022-12-26T19:18:47.624Z,17.015898
2022-12-26T19:23:49.398Z,16.858342
2022-12-26T19:33:52.024Z,16.949258
2022-12-26T19:38:53.700Z,17.06772
2022-12-26T19:43:55.195Z,16.728576
2022-12-26T19:48:56.771Z,16.976532
2022-12-26T19:53:58.487Z,17.170808
2022-12-26T19:59:00.263Z,17.231192
2022-12-26T20:04:02.077Z,16.903352
2022-12-26T20:09:04.183Z,16.718426
2022-12-26T20:14:05.653Z,16.445936
2022-12-26T20:19:07.206Z,17.154484
2022-12-26T20:24:08.897Z,16.042812
2022-12-26T20:29:10.493Z,16.171858
2022-12-26T20:34:11.939Z,16.01669
2022-12-26T20:39:13.849Z,16.26314
2022-12-26T20:44:15.696Z,15.902204
2022-12-26T20:49:17.293Z,16.206908
2022-12-26T20:54:18.843Z,15.854452
2022-12-26T20:59:20.768Z,15.894524
2022-12-26T21:04:22.569Z,16.115192
2022-12-26T21:09:24.966Z,16.140702
2022-12-26T21:14:26.920Z,15.262522
2022-12-26T21:19:28.739Z,15.492892
2022-12-26T21:24:30.729Z,15.061354
2022-12-26T21:29:32.660Z,15.277178
2022-12-26T21:34:34.439Z,15.29076
2022-12-26T21:39:36.723Z,14.942986
2022-12-26T21:44:38.541Z,15.448764
2022-12-26T21:49:40.601Z,15.40374
2022-12-26T21:54:48.573Z,15.179096
2022-12-26T21:59:51.330Z,15.052438
2022-12-26T22:04:53.108Z,14.973084
2022-12-26T22:09:55.463Z,14.180446
2022-12-26T22:14:56.957Z,14.757274
2022-12-26T22:19:58.764Z,15.28194
2022-12-26T22:25:00.939Z,14.638554
2022-12-26T22:30:02.757Z,15.065234
2022-12-26T22:35:04.737Z,14.815432
2022-12-26T22:40:06.651Z,15.736424
2022-12-26T22:45:08.129Z,14.986584
2022-12-26T22:50:09.723Z,14.881286
2022-12-26T22:55:11.299Z,14.563432
2022-12-26T23:00:12.793Z,15.26092
2022-12-26T23:05:14.542Z,13.877424
2022-12-26T23:10:16.746Z,14.241698
2022-12-26T23:15:18.631Z,14.939634
2022-12-26T23:20:20.468Z,14.674214
2022-12-26T23:25:22.633Z,14.858692
2022-12-26T23:30:24.457Z,13.87053
2022-12-26T23:35:26.205Z,14.44824
2022-12-26T23:40:28.277Z,14.668474
2022-12-26T23:45:30.057Z,14.460602
2022-12-26T23:50:31.906Z,13.72569
2022-12-26T23:55:33.858Z,14.72506
